Terminal Aerodrome Forecast
Issued by NWS Wilmington, OH

Current Version | Previous Version | Graphics & Text | Print | Product List | Glossary On
Versions: 1 2 3 4 5 6 7 8 9 10 11 12 13 14 15 16 17 18 19 20 21 22 23
000
FTUS41 KILN 301700
TAFCMH
TAF
KCMH 301740Z 3018/3118 21012G20KT P6SM SCT060 BKN200
     FM302300 21011KT P6SM -SHRA VCTS SCT050CB OVC120
     FM310100 21007KT P6SM -SHRA SCT050 OVC120
     FM310300 19007KT 3SM -SHRA BR SCT012 BKN050
     FM310600 21006KT 3SM -SHRA BR OVC012
     FM311400 21008KT P6SM VCSH OVC018
     FM311600 21010KT P6SM -SHRA VCTS BKN025CB=

USA.gov is the U.S. government's official web portal to all federal, state and local government web resources and services.